sensor_id;sensor_type;location;lat;lon;timestamp;pressure;altitude;pressure_sealevel;temperature;humidity
26697;BME280;14312;52.614;13.496;2023-03-22T00:01:29;100543.69;;;13.71;70.34
26697;BME280;14312;52.614;13.496;2023-03-22T00:04:17;100547.97;;;13.67;70.37
26697;BME280;14312;52.614;13.496;2023-03-22T00:07:03;100550.91;;;13.66;70.46
26697;BME280;14312;52.614;13.496;2023-03-22T00:09:48;100536.97;;;13.64;70.58
26697;BME280;14312;52.614;13.496;2023-03-22T00:12:34;100535.06;;;13.59;70.57
26697;BME280;14312;52.614;13.496;2023-03-22T00:15:20;100538.81;;;13.58;70.70
26697;BME280;14312;52.614;13.496;2023-03-22T00:18:08;100539.34;;;13.55;70.82
26697;BME280;14312;52.614;13.496;2023-03-22T00:20:58;100537.75;;;13.54;70.76
26697;BME280;14312;52.614;13.496;2023-03-22T00:23:44;100535.06;;;13.54;70.92
26697;BME280;14312;52.614;13.496;2023-03-22T00:26:30;100525.41;;;13.53;70.91
26697;BME280;14312;52.614;13.496;2023-03-22T00:29:16;100531.84;;;13.52;70.86
26697;BME280;14312;52.614;13.496;2023-03-22T00:32:04;100531.28;;;13.50;70.78
26697;BME280;14312;52.614;13.496;2023-03-22T00:34:50;100524.34;;;13.49;70.86
26697;BME280;14312;52.614;13.496;2023-03-22T00:37:36;100524.59;;;13.48;71.03
26697;BME280;14312;52.614;13.496;2023-03-22T00:40:25;100524.59;;;13.43;70.73
26697;BME280;14312;52.614;13.496;2023-03-22T00:43:12;100516.81;;;13.41;70.83
26697;BME280;14312;52.614;13.496;2023-03-22T00:45:58;100511.16;;;13.38;70.58
26697;BME280;14312;52.614;13.496;2023-03-22T00:48:44;100518.91;;;13.34;70.73
26697;BME280;14312;52.614;13.496;2023-03-22T00:51:30;100514.06;;;13.31;70.71
26697;BME280;14312;52.614;13.496;2023-03-22T00:54:16;100513.53;;;13.29;70.74
26697;BME280;14312;52.614;13.496;2023-03-22T00:57:02;100508.72;;;13.26;70.90
26697;BME280;14312;52.614;13.496;2023-03-22T00:59:48;100513.25;;;13.25;70.92
26697;BME280;14312;52.614;13.496;2023-03-22T01:02:34;100517.78;;;13.25;70.86
26697;BME280;14312;52.614;13.496;2023-03-22T01:05:20;100519.91;;;13.23;71.00
26697;BME280;14312;52.614;13.496;2023-03-22T01:08:06;100512.19;;;13.21;70.72
26697;BME280;14312;52.614;13.496;2023-03-22T01:10:58;100511.38;;;13.21;70.81
26697;BME280;14312;52.614;13.496;2023-03-22T01:13:44;100513.50;;;13.19;70.74
26697;BME280;14312;52.614;13.496;2023-03-22T01:16:32;100498.75;;;13.16;70.65
26697;BME280;14312;52.614;13.496;2023-03-22T01:19:18;100494.22;;;13.17;70.73
26697;BME280;14312;52.614;13.496;2023-03-22T01:22:05;100502.47;;;13.15;70.74
26697;BME280;14312;52.614;13.496;2023-03-22T01:24:51;100507.03;;;13.15;70.66
26697;BME280;14312;52.614;13.496;2023-03-22T01:27:37;100504.34;;;13.15;70.56
26697;BME280;14312;52.614;13.496;2023-03-22T01:30:23;100496.31;;;13.15;70.71
26697;BME280;14312;52.614;13.496;2023-03-22T01:33:09;100487.78;;;13.13;70.71
26697;BME280;14312;52.614;13.496;2023-03-22T01:35:55;100486.72;;;13.14;70.85
26697;BME280;14312;52.614;13.496;2023-03-22T01:38:41;100484.03;;;13.14;70.80
26697;BME280;14312;52.614;13.496;2023-03-22T01:41:27;100480.28;;;13.15;71.00
26697;BME280;14312;52.614;13.496;2023-03-22T01:44:19;100476.25;;;13.12;71.11
26697;BME280;14312;52.614;13.496;2023-03-22T01:47:07;100471.13;;;13.11;71.04
26697;BME280;14312;52.614;13.496;2023-03-22T01:49:55;100469.53;;;13.10;71.15
26697;BME280;14312;52.614;13.496;2023-03-22T01:52:41;100468.97;;;13.08;71.28
26697;BME280;14312;52.614;13.496;2023-03-22T01:55:27;100467.38;;;13.07;71.17
26697;BME280;14312;52.614;13.496;2023-03-22T01:58:15;100463.09;;;13.06;71.25
26697;BME280;14312;52.614;13.496;2023-03-22T02:01:04;100462.53;;;13.04;71.24
26697;BME280;14312;52.614;13.496;2023-03-22T02:04:09;100462.53;;;13.04;71.45
26697;BME280;14312;52.614;13.496;2023-03-22T02:06:57;100463.06;;;13.01;71.21
26697;BME280;14312;52.614;13.496;2023-03-22T02:09:43;100463.06;;;13.01;71.23
26697;BME280;14312;52.614;13.496;2023-03-22T02:13:13;100461.47;;;13.00;71.41
26697;BME280;14312;52.614;13.496;2023-03-22T02:19:24;100452.09;;;12.97;71.49
26697;BME280;14312;52.614;13.496;2023-03-22T02:28:36;100456.06;;;12.89;71.30
26697;BME280;14312;52.614;13.496;2023-03-22T02:35:07;100452.81;;;12.87;71.45
26697;BME280;14312;52.614;13.496;2023-03-22T02:47:24;100436.19;;;12.80;71.11
26697;BME280;14312;52.614;13.496;2023-03-22T02:50:29;100442.09;;;12.77;71.61
26697;BME280;14312;52.614;13.496;2023-03-22T02:53:41;100437.00;;;12.76;71.32
26697;BME280;14312;52.614;13.496;2023-03-22T02:56:49;100431.09;;;12.74;71.14
26697;BME280;14312;52.614;13.496;2023-03-22T02:59:39;100432.44;;;12.71;71.38
26697;BME280;14312;52.614;13.496;2023-03-22T03:02:28;100432.94;;;12.68;71.34
26697;BME280;14312;52.614;13.496;2023-03-22T03:05:17;100440.41;;;12.66;71.37
26697;BME280;14312;52.614;13.496;2023-03-22T03:08:04;100439.88;;;12.64;71.50
26697;BME280;14312;52.614;13.496;2023-03-22T03:10:52;100428.63;;;12.62;71.40
26697;BME280;14312;52.614;13.496;2023-03-22T03:13:38;100416.31;;;12.61;71.60
26697;BME280;14312;52.614;13.496;2023-03-22T03:16:26;100418.44;;;12.59;71.64
26697;BME280;14312;52.614;13.496;2023-03-22T03:19:24;100417.63;;;12.59;71.84
26697;BME280;14312;52.614;13.496;2023-03-22T03:22:32;100428.56;;;12.52;71.71
26697;BME280;14312;52.614;13.496;2023-03-22T03:25:38;100430.16;;;12.53;71.67
26697;BME280;14312;52.614;13.496;2023-03-22T03:28:34;100423.75;;;12.49;71.50
26697;BME280;14312;52.614;13.496;2023-03-22T03:31:42;100433.88;;;12.47;71.64
26697;BME280;14312;52.614;13.496;2023-03-22T03:34:32;100440.81;;;12.43;71.50
26697;BME280;14312;52.614;13.496;2023-03-22T03:37:25;100444.22;;;12.38;71.59
26697;BME280;14312;52.614;13.496;2023-03-22T03:40:16;100446.63;;;12.35;71.55
26697;BME280;14312;52.614;13.496;2023-03-22T03:43:04;100447.94;;;12.32;71.74
26697;BME280;14312;52.614;13.496;2023-03-22T03:45:52;100446.56;;;12.30;71.88
26697;BME280;14312;52.614;13.496;2023-03-22T03:48:41;100450.03;;;12.30;72.17
26697;BME280;14312;52.614;13.496;2023-03-22T03:51:29;100447.38;;;12.30;72.19
26697;BME280;14312;52.614;13.496;2023-03-22T03:54:15;100447.38;;;12.30;72.22
26697;BME280;14312;52.614;13.496;2023-03-22T03:57:01;100453.50;;;12.31;72.14
26697;BME280;14312;52.614;13.496;2023-03-22T03:59:47;100445.25;;;12.32;72.23
26697;BME280;14312;52.614;13.496;2023-03-22T04:02:33;100444.44;;;12.32;72.32
26697;BME280;14312;52.614;13.496;2023-03-22T04:05:19;100439.09;;;12.32;72.19
26697;BME280;14312;52.614;13.496;2023-03-22T04:08:06;100439.09;;;12.32;72.27
26697;BME280;14312;52.614;13.496;2023-03-22T04:10:52;100433.75;;;12.32;72.15
26697;BME280;14312;52.614;13.496;2023-03-22T04:13:38;100425.75;;;12.32;72.17
26697;BME280;14312;52.614;13.496;2023-03-22T04:16:24;100423.88;;;12.32;72.26
26697;BME280;14312;52.614;13.496;2023-03-22T04:19:10;100437.53;;;12.36;72.26
26697;BME280;14312;52.614;13.496;2023-03-22T04:21:56;100440.22;;;12.36;72.15
26697;BME280;14312;52.614;13.496;2023-03-22T04:24:42;100446.09;;;12.38;72.01
26697;BME280;14312;52.614;13.496;2023-03-22T04:27:34;100438.88;;;12.38;72.33
26697;BME280;14312;52.614;13.496;2023-03-22T04:30:20;100442.09;;;12.40;72.38
26697;BME280;14312;52.614;13.496;2023-03-22T04:33:07;100443.72;;;12.41;72.06
26697;BME280;14312;52.614;13.496;2023-03-22T04:35:53;100442.38;;;12.44;72.03
26697;BME280;14312;52.614;13.496;2023-03-22T04:38:42;100441.88;;;12.47;72.01
26697;BME280;14312;52.614;13.496;2023-03-22T04:41:28;100437.34;;;12.47;71.88
26697;BME280;14312;52.614;13.496;2023-03-22T04:44:14;100430.94;;;12.48;71.86
26697;BME280;14312;52.614;13.496;2023-03-22T04:47:00;100426.41;;;12.49;71.76
26697;BME280;14312;52.614;13.496;2023-03-22T04:49:46;100427.75;;;12.51;71.82
26697;BME280;14312;52.614;13.496;2023-03-22T04:52:32;100426.94;;;12.51;71.81
26697;BME280;14312;52.614;13.496;2023-03-22T04:55:18;100426.13;;;12.50;71.84
26697;BME280;14312;52.614;13.496;2023-03-22T04:58:04;100435.22;;;12.49;71.78
26697;BME280;14312;52.614;13.496;2023-03-22T05:00:51;100427.47;;;12.48;71.70
26697;BME280;14312;52.614;13.496;2023-03-22T05:03:38;100416.78;;;12.48;72.09
26697;BME280;14312;52.614;13.496;2023-03-22T05:06:24;100418.91;;;12.46;71.90
26697;BME280;14312;52.614;13.496;2023-03-22T05:09:10;100415.41;;;12.45;71.98
26697;BME280;14312;52.614;13.496;2023-03-22T05:11:56;100410.31;;;12.44;71.99
26697;BME280;14312;52.614;13.496;2023-03-22T05:14:42;100414.06;;;12.43;72.02
26697;BME280;14312;52.614;13.496;2023-03-22T05:17:28;100403.38;;;12.43;72.10
26697;BME280;14312;52.614;13.496;2023-03-22T05:20:14;100411.13;;;12.44;72.18
26697;BME280;14312;52.614;13.496;2023-03-22T05:23:00;100400.19;;;12.46;72.14
26697;BME280;14312;52.614;13.496;2023-03-22T05:25:48;100402.84;;;12.46;72.08
26697;BME280;14312;52.614;13.496;2023-03-22T05:28:34;100407.41;;;12.45;72.19
26697;BME280;14312;52.614;13.496;2023-03-22T05:31:21;100408.19;;;12.46;72.16
26697;BME280;14312;52.614;13.496;2023-03-22T05:34:07;100404.97;;;12.44;72.22
26697;BME280;14312;52.614;13.496;2023-03-22T05:36:54;100401.25;;;12.45;72.19
26697;BME280;14312;52.614;13.496;2023-03-22T05:39:40;100407.41;;;12.45;72.06
26697;BME280;14312;52.614;13.496;2023-03-22T05:42:26;100402.06;;;12.45;71.96
26697;BME280;14312;52.614;13.496;2023-03-22T05:45:12;100401.25;;;12.45;71.88
26697;BME280;14312;52.614;13.496;2023-03-22T05:47:58;100400.19;;;12.46;71.98
26697;BME280;14312;52.614;13.496;2023-03-22T05:50:44;100395.91;;;12.45;72.02
26697;BME280;14312;52.614;13.496;2023-03-22T05:53:31;100393.22;;;12.45;72.01
26697;BME280;14312;52.614;13.496;2023-03-22T05:56:18;100388.94;;;12.44;72.15
26697;BME280;14312;52.614;13.496;2023-03-22T05:59:08;100391.38;;;12.45;72.17
26697;BME280;14312;52.614;13.496;2023-03-22T06:01:54;100395.09;;;12.44;71.91
26697;BME280;14312;52.614;13.496;2023-03-22T06:04:40;100394.56;;;12.42;72.14
26697;BME280;14312;52.614;13.496;2023-03-22T06:07:27;100396.97;;;12.44;71.94
26697;BME280;14312;52.614;13.496;2023-03-22T06:10:14;100398.56;;;12.45;72.15
26697;BME280;14312;52.614;13.496;2023-03-22T06:13:01;100388.94;;;12.44;72.11
26697;BME280;14312;52.614;13.496;2023-03-22T06:15:47;100388.13;;;12.43;72.03
26697;BME280;14312;52.614;13.496;2023-03-22T06:18:32;100389.75;;;12.44;72.10
26697;BME280;14312;52.614;13.496;2023-03-22T06:21:18;100397.50;;;12.46;72.27
26697;BME280;14312;52.614;13.496;2023-03-22T06:24:04;100395.91;;;12.45;72.14
26697;BME280;14312;52.614;13.496;2023-03-22T06:26:50;100402.59;;;12.47;72.26
26697;BME280;14312;52.614;13.496;2023-03-22T06:29:36;100398.06;;;12.48;72.31
26697;BME280;14312;52.614;13.496;2023-03-22T06:32:22;100395.41;;;12.48;72.53
26697;BME280;14312;52.614;13.496;2023-03-22T06:35:12;100397.00;;;12.49;72.18
26697;BME280;14312;52.614;13.496;2023-03-22T06:37:58;100405.06;;;12.54;72.31
26697;BME280;14312;52.614;13.496;2023-03-22T06:40:44;100394.09;;;12.55;72.14
26697;BME280;14312;52.614;13.496;2023-03-22T06:43:30;100392.25;;;12.56;72.21
26697;BME280;14312;52.614;13.496;2023-03-22T06:46:16;100401.59;;;12.59;72.17
26697;BME280;14312;52.614;13.496;2023-03-22T06:49:02;100397.84;;;12.60;72.04
26697;BME280;14312;52.614;13.496;2023-03-22T06:51:48;100403.50;;;12.63;72.13
26697;BME280;14312;52.614;13.496;2023-03-22T06:54:33;100407.50;;;12.66;71.89
26697;BME280;14312;52.614;13.496;2023-03-22T06:57:19;100401.91;;;12.67;72.13
26697;BME280;14312;52.614;13.496;2023-03-22T07:00:06;100407.81;;;12.69;72.07
26697;BME280;14312;52.614;13.496;2023-03-22T07:02:52;100401.94;;;12.72;71.91
26697;BME280;14312;52.614;13.496;2023-03-22T07:05:38;100413.19;;;12.74;72.03
26697;BME280;14312;52.614;13.496;2023-03-22T07:08:24;100407.34;;;12.77;72.10
26697;BME280;14312;52.614;13.496;2023-03-22T07:11:10;100415.63;;;12.81;71.87
26697;BME280;14312;52.614;13.496;2023-03-22T07:13:56;100403.63;;;12.83;71.99
26697;BME280;14312;52.614;13.496;2023-03-22T07:16:42;100406.56;;;12.87;72.05
26697;BME280;14312;52.614;13.496;2023-03-22T07:19:28;100405.25;;;12.94;71.86
26697;BME280;14312;52.614;13.496;2023-03-22T07:22:14;100405.81;;;12.97;71.83
26697;BME280;14312;52.614;13.496;2023-03-22T07:25:00;100404.50;;;12.99;71.79
26697;BME280;14312;52.614;13.496;2023-03-22T07:27:46;100407.97;;;13.05;71.78
26697;BME280;14312;52.614;13.496;2023-03-22T07:30:32;100404.78;;;13.08;71.97
26697;BME280;14312;52.614;13.496;2023-03-22T07:33:21;100404.59;;;13.14;71.88
26697;BME280;14312;52.614;13.496;2023-03-22T07:36:08;100397.38;;;13.20;71.83
26697;BME280;14312;52.614;13.496;2023-03-22T07:38:54;100392.84;;;13.25;71.90
26697;BME280;14312;52.614;13.496;2023-03-22T07:41:40;100395.00;;;13.33;71.80
26697;BME280;14312;52.614;13.496;2023-03-22T07:44:26;100390.47;;;13.39;71.71
26697;BME280;14312;52.614;13.496;2023-03-22T07:47:12;100391.00;;;13.46;71.67
26697;BME280;14312;52.614;13.496;2023-03-22T07:49:58;100386.22;;;13.53;71.60
26697;BME280;14312;52.614;13.496;2023-03-22T07:52:44;100395.03;;;13.59;71.54
26697;BME280;14312;52.614;13.496;2023-03-22T07:55:30;100381.94;;;13.67;71.18
26697;BME280;14312;52.614;13.496;2023-03-22T07:58:16;100384.09;;;13.76;71.01
26697;BME280;14312;52.614;13.496;2023-03-22T08:01:04;100383.03;;;13.82;70.96
26697;BME280;14312;52.614;13.496;2023-03-22T08:03:50;100382.50;;;13.90;70.78
26697;BME280;14312;52.614;13.496;2023-03-22T08:06:36;100382.50;;;13.95;70.91
26697;BME280;14312;52.614;13.496;2023-03-22T08:09:22;100371.78;;;14.05;70.81
26697;BME280;14312;52.614;13.496;2023-03-22T08:12:08;100373.91;;;14.13;70.79
26697;BME280;14312;52.614;13.496;2023-03-22T08:14:55;100362.91;;;14.25;70.57
26697;BME280;14312;52.614;13.496;2023-03-22T08:17:41;100370.41;;;14.38;69.82
26697;BME280;14312;52.614;13.496;2023-03-22T08:20:26;100364.78;;;14.44;69.76
26697;BME280;14312;52.614;13.496;2023-03-22T08:23:12;100358.59;;;14.54;70.07
26697;BME280;14312;52.614;13.496;2023-03-22T08:26:03;100366.31;;;14.66;69.49
26697;BME280;14312;52.614;13.496;2023-03-22T08:28:49;100370.59;;;14.77;69.60
26697;BME280;14312;52.614;13.496;2023-03-22T08:31:35;100368.94;;;14.86;69.78
26697;BME280;14312;52.614;13.496;2023-03-22T08:34:21;100367.25;;;15.00;68.54
26697;BME280;14312;52.614;13.496;2023-03-22T08:37:08;100365.59;;;15.09;68.58
26697;BME280;14312;52.614;13.496;2023-03-22T08:39:55;100364.75;;;15.19;67.84
26697;BME280;14312;52.614;13.496;2023-03-22T08:42:41;100362.84;;;15.24;67.91
26697;BME280;14312;52.614;13.496;2023-03-22T08:45:27;100363.88;;;15.28;67.80
26697;BME280;14312;52.614;13.496;2023-03-22T08:48:13;100362.78;;;15.35;67.36
26697;BME280;14312;52.614;13.496;2023-03-22T08:50:59;100356.06;;;15.37;67.63
26697;BME280;14312;52.614;13.496;2023-03-22T08:53:47;100356.00;;;15.42;67.60
26697;BME280;14312;52.614;13.496;2023-03-22T08:56:33;100353.31;;;15.47;67.38
26697;BME280;14312;52.614;13.496;2023-03-22T08:59:22;100350.06;;;15.50;67.13
26697;BME280;14312;52.614;13.496;2023-03-22T09:02:08;100346.00;;;15.58;66.92
26697;BME280;14312;52.614;13.496;2023-03-22T09:04:54;100336.28;;;15.67;66.71
26697;BME280;14312;52.614;13.496;2023-03-22T09:07:40;100333.78;;;15.76;65.71
26697;BME280;14312;52.614;13.496;2023-03-22T09:10:27;100328.66;;;15.79;65.86
26697;BME280;14312;52.614;13.496;2023-03-22T09:13:13;100330.72;;;15.87;65.44
26697;BME280;14312;52.614;13.496;2023-03-22T09:16:01;100333.38;;;15.92;65.38
26697;BME280;14312;52.614;13.496;2023-03-22T09:18:47;100322.00;;;16.00;65.30
26697;BME280;14312;52.614;13.496;2023-03-22T09:21:33;100316.00;;;16.09;64.32
26697;BME280;14312;52.614;13.496;2023-03-22T09:24:19;100306.81;;;16.15;63.88
26697;BME280;14312;52.614;13.496;2023-03-22T09:27:05;100310.03;;;16.17;63.23
26697;BME280;14312;52.614;13.496;2023-03-22T09:29:51;100300.25;;;16.26;62.72
26697;BME280;14312;52.614;13.496;2023-03-22T09:32:37;100303.97;;;16.30;62.91
26697;BME280;14312;52.614;13.496;2023-03-22T09:35:23;100309.59;;;16.33;63.12
26697;BME280;14312;52.614;13.496;2023-03-22T09:38:10;100311.41;;;16.38;64.08
26697;BME280;14312;52.614;13.496;2023-03-22T09:41:21;100314.22;;;16.52;63.97
26697;BME280;14312;52.614;13.496;2023-03-22T09:44:29;100317.03;;;16.65;63.58
26697;BME280;14312;52.614;13.496;2023-03-22T09:47:22;100308.84;;;16.75;62.46
26697;BME280;14312;52.614;13.496;2023-03-22T09:53:02;100304.84;;;16.92;62.31
26697;BME280;14312;52.614;13.496;2023-03-22T09:56:15;100299.91;;;16.99;62.56
26697;BME280;14312;52.614;13.496;2023-03-22T09:59:18;100302.25;;;17.05;62.28
26697;BME280;14312;52.614;13.496;2023-03-22T10:05:34;100294.69;;;17.26;60.95
26697;BME280;14312;52.614;13.496;2023-03-22T10:08:43;100287.53;;;17.35;61.02
26697;BME280;14312;52.614;13.496;2023-03-22T10:14:49;100291.97;;;17.45;61.08
26697;BME280;14312;52.614;13.496;2023-03-22T10:17:38;100281.63;;;17.52;60.60
26697;BME280;14312;52.614;13.496;2023-03-22T10:20:41;100273.16;;;17.58;59.47
26697;BME280;14312;52.614;13.496;2023-03-22T10:23:33;100271.47;;;17.63;59.97
26697;BME280;14312;52.614;13.496;2023-03-22T10:26:28;100267.63;;;17.69;59.17
26697;BME280;14312;52.614;13.496;2023-03-22T10:32:31;100257.06;;;17.86;59.27
26697;BME280;14312;52.614;13.496;2023-03-22T10:35:19;100252.38;;;17.91;59.15
26697;BME280;14312;52.614;13.496;2023-03-22T10:38:08;100235.81;;;17.98;59.20
26697;BME280;14312;52.614;13.496;2023-03-22T10:40:58;100230.81;;;18.05;58.54
26697;BME280;14312;52.614;13.496;2023-03-22T10:43:49;100229.53;;;18.16;57.99
26697;BME280;14312;52.614;13.496;2023-03-22T10:46:37;100223.22;;;18.21;56.49
26697;BME280;14312;52.614;13.496;2023-03-22T10:49:31;100223.91;;;18.26;56.44
26697;BME280;14312;52.614;13.496;2023-03-22T10:55:49;100211.44;;;18.30;55.88
26697;BME280;14312;52.614;13.496;2023-03-22T10:58:35;100209.44;;;18.36;55.93
26697;BME280;14312;52.614;13.496;2023-03-22T11:01:30;100207.63;;;18.45;55.66
26697;BME280;14312;52.614;13.496;2023-03-22T11:04:16;100209.41;;;18.50;55.37
26697;BME280;14312;52.614;13.496;2023-03-22T11:07:02;100212.63;;;18.52;56.04
26697;BME280;14312;52.614;13.496;2023-03-22T11:09:48;100215.03;;;18.53;55.72
26697;BME280;14312;52.614;13.496;2023-03-22T11:12:36;100209.25;;;18.60;54.90
26697;BME280;14312;52.614;13.496;2023-03-22T11:15:28;100209.72;;;18.62;55.48
26697;BME280;14312;52.614;13.496;2023-03-22T11:18:16;100200.22;;;18.64;55.27
26697;BME280;14312;52.614;13.496;2023-03-22T11:21:09;100201.69;;;18.70;55.07
26697;BME280;14312;52.614;13.496;2023-03-22T11:24:06;100193.81;;;18.74;54.88
26697;BME280;14312;52.614;13.496;2023-03-22T11:27:22;100195.44;;;18.84;55.09
26697;BME280;14312;52.614;13.496;2023-03-22T11:30:26;100198.72;;;18.94;55.11
26697;BME280;14312;52.614;13.496;2023-03-22T11:33:19;100195.31;;;19.02;54.47
26697;BME280;14312;52.614;13.496;2023-03-22T11:36:16;100194.25;;;19.12;53.61
26697;BME280;14312;52.614;13.496;2023-03-22T11:39:06;100205.84;;;19.12;53.46
26697;BME280;14312;52.614;13.496;2023-03-22T11:42:00;100188.03;;;19.11;53.27
26697;BME280;14312;52.614;13.496;2023-03-22T11:44:48;100178.72;;;19.17;51.79
26697;BME280;14312;52.614;13.496;2023-03-22T11:47:37;100184.59;;;19.20;51.36
26697;BME280;14312;52.614;13.496;2023-03-22T11:50:31;100189.41;;;19.23;52.39
26697;BME280;14312;52.614;13.496;2023-03-22T11:53:22;100171.34;;;19.32;51.99
26697;BME280;14312;52.614;13.496;2023-03-22T11:56:12;100168.84;;;19.44;52.56
26697;BME280;14312;52.614;13.496;2023-03-22T11:59:15;100168.97;;;19.61;50.65
26697;BME280;14312;52.614;13.496;2023-03-22T12:02:21;100162.69;;;19.74;50.96
26697;BME280;14312;52.614;13.496;2023-03-22T12:05:18;100158.75;;;19.89;49.57
26697;BME280;14312;52.614;13.496;2023-03-22T12:08:10;100142.06;;;19.96;49.88
26697;BME280;14312;52.614;13.496;2023-03-22T12:11:04;100137.94;;;20.07;48.05
26697;BME280;14312;52.614;13.496;2023-03-22T12:13:56;100145.78;;;20.17;46.83
26697;BME280;14312;52.614;13.496;2023-03-22T12:16:57;100141.16;;;20.26;47.04
26697;BME280;14312;52.614;13.496;2023-03-22T12:20:01;100120.84;;;20.37;46.01
26697;BME280;14312;52.614;13.496;2023-03-22T12:22:53;100127.69;;;20.52;45.17
26697;BME280;14312;52.614;13.496;2023-03-22T12:25:39;100135.78;;;20.60;45.58
26697;BME280;14312;52.614;13.496;2023-03-22T12:28:32;100134.88;;;20.74;45.77
26697;BME280;14312;52.614;13.496;2023-03-22T12:31:25;100117.78;;;20.90;46.35
26697;BME280;14312;52.614;13.496;2023-03-22T12:34:21;100111.25;;;21.17;45.24
26697;BME280;14312;52.614;13.496;2023-03-22T12:37:15;100113.69;;;21.39;44.68
26697;BME280;14312;52.614;13.496;2023-03-22T12:40:21;100087.16;;;21.54;43.72
26697;BME280;14312;52.614;13.496;2023-03-22T12:43:20;100102.78;;;21.57;43.50
26697;BME280;14312;52.614;13.496;2023-03-22T12:46:24;100097.19;;;21.62;43.30
26697;BME280;14312;52.614;13.496;2023-03-22T12:49:31;100091.25;;;21.68;42.85
26697;BME280;14312;52.614;13.496;2023-03-22T12:52:44;100095.69;;;21.73;42.46
26697;BME280;14312;52.614;13.496;2023-03-22T12:55:37;100083.75;;;21.74;44.08
26697;BME280;14312;52.614;13.496;2023-03-22T12:58:24;100089.53;;;21.93;42.20
26697;BME280;14312;52.614;13.496;2023-03-22T13:19:00;100079.97;;;22.37;41.17
26697;BME280;14312;52.614;13.496;2023-03-22T13:21:47;100078.56;;;22.52;41.49
26697;BME280;14312;52.614;13.496;2023-03-22T13:24:33;100062.09;;;22.69;40.56
26697;BME280;14312;52.614;13.496;2023-03-22T13:30:52;100072.59;;;22.58;40.86
26697;BME280;14312;52.614;13.496;2023-03-22T13:33:39;100080.41;;;22.39;41.24
26697;BME280;14312;52.614;13.496;2023-03-22T13:36:28;100079.25;;;22.28;41.46
26697;BME280;14312;52.614;13.496;2023-03-22T13:39:15;100070.03;;;22.20;41.86
26697;BME280;14312;52.614;13.496;2023-03-22T13:42:07;100085.84;;;22.18;41.46
26697;BME280;14312;52.614;13.496;2023-03-22T13:44:58;100077.91;;;22.13;40.98
26697;BME280;14312;52.614;13.496;2023-03-22T13:48:27;100070.09;;;22.12;40.75
26697;BME280;14312;52.614;13.496;2023-03-22T13:56:58;100058.38;;;21.70;42.34
26697;BME280;14312;52.614;13.496;2023-03-22T14:00:17;100080.59;;;21.63;42.65
26697;BME280;14312;52.614;13.496;2023-03-22T14:03:12;100056.59;;;21.44;42.06
26697;BME280;14312;52.614;13.496;2023-03-22T14:06:06;100048.34;;;21.32;42.84
26697;BME280;14312;52.614;13.496;2023-03-22T14:08:58;100048.06;;;21.25;42.23
26697;BME280;14312;52.614;13.496;2023-03-22T14:12:04;100039.19;;;21.16;41.45
26697;BME280;14312;52.614;13.496;2023-03-22T14:15:00;100043.50;;;21.00;41.96
26697;BME280;14312;52.614;13.496;2023-03-22T14:18:11;100043.41;;;20.88;42.68
26697;BME280;14312;52.614;13.496;2023-03-22T14:21:05;100068.59;;;20.80;42.98
26697;BME280;14312;52.614;13.496;2023-03-22T14:23:54;100036.38;;;20.87;43.21
26697;BME280;14312;52.614;13.496;2023-03-22T14:26:44;100035.69;;;20.98;42.45
26697;BME280;14312;52.614;13.496;2023-03-22T14:29:45;100041.06;;;21.16;43.16
26697;BME280;14312;52.614;13.496;2023-03-22T14:32:31;100035.94;;;21.31;42.57
26697;BME280;14312;52.614;13.496;2023-03-22T14:35:22;100042.22;;;21.53;42.87
26697;BME280;14312;52.614;13.496;2023-03-22T14:38:18;100029.75;;;21.81;43.25
26697;BME280;14312;52.614;13.496;2023-03-22T14:41:15;100039.44;;;22.11;42.55
26697;BME280;14312;52.614;13.496;2023-03-22T14:44:02;100034.75;;;22.20;41.22
26697;BME280;14312;52.614;13.496;2023-03-22T14:46:47;100026.47;;;22.17;40.14
26697;BME280;14312;52.614;13.496;2023-03-22T14:49:41;100026.88;;;22.07;39.58
26697;BME280;14312;52.614;13.496;2023-03-22T14:52:33;100027.25;;;21.97;40.38
26697;BME280;14312;52.614;13.496;2023-03-22T14:55:22;100027.31;;;21.88;40.18
26697;BME280;14312;52.614;13.496;2023-03-22T14:58:14;100027.69;;;21.78;39.87
26697;BME280;14312;52.614;13.496;2023-03-22T15:01:03;100027.16;;;21.64;40.50
26697;BME280;14312;52.614;13.496;2023-03-22T15:03:54;100025.94;;;21.53;40.16
26697;BME280;14312;52.614;13.496;2023-03-22T15:06:52;100018.38;;;21.37;40.73
26697;BME280;14312;52.614;13.496;2023-03-22T15:09:40;100003.56;;;21.26;40.82
26697;BME280;14312;52.614;13.496;2023-03-22T15:12:26;100028.34;;;21.16;40.87
26697;BME280;14312;52.614;13.496;2023-03-22T15:15:13;100031.84;;;21.08;41.26
26697;BME280;14312;52.614;13.496;2023-03-22T15:18:00;100011.00;;;21.00;41.73
26697;BME280;14312;52.614;13.496;2023-03-22T15:20:48;100023.78;;;20.91;41.69
26697;BME280;14312;52.614;13.496;2023-03-22T15:23:50;100028.28;;;20.78;41.79
26697;BME280;14312;52.614;13.496;2023-03-22T15:26:37;100004.09;;;20.64;41.35
26697;BME280;14312;52.614;13.496;2023-03-22T15:29:27;100003.16;;;20.52;42.33
26697;BME280;14312;52.614;13.496;2023-03-22T15:32:19;100004.16;;;20.39;42.62
26697;BME280;14312;52.614;13.496;2023-03-22T15:35:07;100007.81;;;20.34;43.28
26697;BME280;14312;52.614;13.496;2023-03-22T15:37:58;100003.00;;;20.31;43.34
26697;BME280;14312;52.614;13.496;2023-03-22T15:40:48;99992.97;;;20.31;43.42
26697;BME280;14312;52.614;13.496;2023-03-22T15:43:38;99994.75;;;20.36;43.60